sensor_id;sensor_type;location;lat;lon;timestamp;pressure;altitude;pressure_sealevel;temperature;humidity
54920;BME280;63804;53.120;8.764;2022-12-18T00:02:00;103028.47;;;-2.66;44.98
54920;BME280;63804;53.120;8.764;2022-12-18T00:04:26;103034.19;;;-2.69;45.13
54920;BME280;63804;53.120;8.764;2022-12-18T00:06:52;103034.72;;;-2.80;45.01
54920;BME280;63804;53.120;8.764;2022-12-18T00:09:19;103030.44;;;-2.81;45.19
54920;BME280;63804;53.120;8.764;2022-12-18T00:11:45;103034.94;;;-2.82;45.17
54920;BME280;63804;53.120;8.764;2022-12-18T00:14:12;103031.59;;;-2.90;45.21
54920;BME280;63804;53.120;8.764;2022-12-18T00:16:38;103026.91;;;-2.82;44.95
54920;BME280;63804;53.120;8.764;2022-12-18T00:19:04;103030.84;;;-2.78;44.90
54920;BME280;63804;53.120;8.764;2022-12-18T00:21:31;103039.16;;;-2.66;44.78
54920;BME280;63804;53.120;8.764;2022-12-18T00:23:58;103042.31;;;-2.84;45.00
54920;BME280;63804;53.120;8.764;2022-12-18T00:26:27;103033.97;;;-3.02;45.25
54920;BME280;63804;53.120;8.764;2022-12-18T00:28:53;103037.59;;;-3.10;45.53
54920;BME280;63804;53.120;8.764;2022-12-18T00:31:21;103029.97;;;-3.13;45.70
54920;BME280;63804;53.120;8.764;2022-12-18T00:33:48;103023.94;;;-2.93;45.40
54920;BME280;63804;53.120;8.764;2022-12-18T00:36:22;103029.91;;;-2.91;45.05
54920;BME280;63804;53.120;8.764;2022-12-18T00:38:48;103035.25;;;-2.91;45.02
54920;BME280;63804;53.120;8.764;2022-12-18T00:41:16;103032.88;;;-2.80;44.82
54920;BME280;63804;53.120;8.764;2022-12-18T00:44:02;103027.91;;;-2.89;44.98
54920;BME280;63804;53.120;8.764;2022-12-18T00:46:28;103024.78;;;-2.93;44.86
54920;BME280;63804;53.120;8.764;2022-12-18T00:48:54;103025.75;;;-3.01;45.23
54920;BME280;63804;53.120;8.764;2022-12-18T00:51:20;103023.19;;;-2.87;45.10
54920;BME280;63804;53.120;8.764;2022-12-18T00:53:45;103013.59;;;-2.75;44.63
54920;BME280;63804;53.120;8.764;2022-12-18T00:56:11;103020.13;;;-2.84;44.68
54920;BME280;63804;53.120;8.764;2022-12-18T00:58:37;103025.56;;;-2.71;44.64
54920;BME280;63804;53.120;8.764;2022-12-18T01:01:06;103035.59;;;-2.73;44.51
54920;BME280;63804;53.120;8.764;2022-12-18T01:03:32;103035.81;;;-2.74;44.60
54920;BME280;63804;53.120;8.764;2022-12-18T01:05:58;103032.84;;;-2.86;44.76
54920;BME280;63804;53.120;8.764;2022-12-18T01:08:24;103043.94;;;-2.89;44.82
54920;BME280;63804;53.120;8.764;2022-12-18T01:10:50;103042.16;;;-2.75;44.60
54920;BME280;63804;53.120;8.764;2022-12-18T01:13:16;103046.69;;;-2.76;44.52
54920;BME280;63804;53.120;8.764;2022-12-18T01:15:48;103048.47;;;-2.83;44.77
54920;BME280;63804;53.120;8.764;2022-12-18T01:18:14;103055.00;;;-2.92;44.64
54920;BME280;63804;53.120;8.764;2022-12-18T01:20:40;103059.94;;;-2.96;44.82
54920;BME280;63804;53.120;8.764;2022-12-18T01:23:06;103061.59;;;-2.88;44.77
54920;BME280;63804;53.120;8.764;2022-12-18T01:25:31;103056.34;;;-3.03;45.06
54920;BME280;63804;53.120;8.764;2022-12-18T01:27:57;103050.47;;;-2.92;44.81
54920;BME280;63804;53.120;8.764;2022-12-18T01:30:23;103052.78;;;-2.89;44.70
54920;BME280;63804;53.120;8.764;2022-12-18T01:32:48;103055.50;;;-2.82;44.56
54920;BME280;63804;53.120;8.764;2022-12-18T01:35:14;103055.50;;;-2.82;44.44
54920;BME280;63804;53.120;8.764;2022-12-18T01:37:40;103061.41;;;-2.87;44.71
54920;BME280;63804;53.120;8.764;2022-12-18T01:40:06;103065.59;;;-2.78;44.60
54920;BME280;63804;53.120;8.764;2022-12-18T01:42:32;103061.13;;;-2.70;44.43
54920;BME280;63804;53.120;8.764;2022-12-18T01:45:06;103062.97;;;-2.71;44.18
54920;BME280;63804;53.120;8.764;2022-12-18T01:50:00;103066.13;;;-2.61;44.09
54920;BME280;63804;53.120;8.764;2022-12-18T01:52:30;103065.94;;;-2.59;44.22
54920;BME280;63804;53.120;8.764;2022-12-18T01:54:59;103056.06;;;-2.59;44.17
54920;BME280;63804;53.120;8.764;2022-12-18T01:57:26;103061.94;;;-2.70;44.39
54920;BME280;63804;53.120;8.764;2022-12-18T01:59:57;103062.81;;;-2.63;44.38
54920;BME280;63804;53.120;8.764;2022-12-18T02:02:26;103059.97;;;-2.61;43.91
54920;BME280;63804;53.120;8.764;2022-12-18T02:04:52;103058.41;;;-2.77;44.43
54920;BME280;63804;53.120;8.764;2022-12-18T02:07:45;103057.41;;;-2.76;44.29
54920;BME280;63804;53.120;8.764;2022-12-18T02:10:23;103062.94;;;-2.78;44.45
54920;BME280;63804;53.120;8.764;2022-12-18T02:13:10;103061.88;;;-3.05;44.84
54920;BME280;63804;53.120;8.764;2022-12-18T02:18:33;103066.53;;;-2.92;44.52
54920;BME280;63804;53.120;8.764;2022-12-18T02:21:21;103063.31;;;-3.09;44.93
54920;BME280;63804;53.120;8.764;2022-12-18T02:26:49;103061.69;;;-2.75;44.40
54920;BME280;63804;53.120;8.764;2022-12-18T02:29:31;103065.09;;;-2.60;44.13
54920;BME280;63804;53.120;8.764;2022-12-18T02:32:02;103064.94;;;-2.80;44.30
54920;BME280;63804;53.120;8.764;2022-12-18T02:34:31;103068.56;;;-2.94;44.75
54920;BME280;63804;53.120;8.764;2022-12-18T02:37:00;103057.25;;;-2.96;44.78
54920;BME280;63804;53.120;8.764;2022-12-18T02:39:29;103057.06;;;-2.94;44.64
54920;BME280;63804;53.120;8.764;2022-12-18T02:41:57;103046.84;;;-2.84;44.58
54920;BME280;63804;53.120;8.764;2022-12-18T02:44:23;103045.38;;;-2.87;44.46
54920;BME280;63804;53.120;8.764;2022-12-18T02:46:52;103049.75;;;-2.79;44.41
54920;BME280;63804;53.120;8.764;2022-12-18T02:49:39;103038.75;;;-2.63;44.13
54920;BME280;63804;53.120;8.764;2022-12-18T02:54:55;103042.44;;;-2.64;44.21
54920;BME280;63804;53.120;8.764;2022-12-18T02:57:35;103049.47;;;-2.63;44.02
54920;BME280;63804;53.120;8.764;2022-12-18T03:00:12;103053.56;;;-2.60;43.82
54920;BME280;63804;53.120;8.764;2022-12-18T03:02:59;103059.88;;;-3.03;44.79
54920;BME280;63804;53.120;8.764;2022-12-18T03:06:09;103063.56;;;-2.75;44.50
54920;BME280;63804;53.120;8.764;2022-12-18T03:08:48;103061.13;;;-2.70;44.24
54920;BME280;63804;53.120;8.764;2022-12-18T03:11:16;103067.97;;;-2.61;44.07
54920;BME280;63804;53.120;8.764;2022-12-18T03:14:03;103055.28;;;-2.52;43.93
54920;BME280;63804;53.120;8.764;2022-12-18T03:16:33;103047.88;;;-2.50;43.84
54920;BME280;63804;53.120;8.764;2022-12-18T03:19:07;103059.47;;;-2.71;44.09
54920;BME280;63804;53.120;8.764;2022-12-18T03:21:50;103064.47;;;-2.62;44.10
54920;BME280;63804;53.120;8.764;2022-12-18T03:24:18;103069.56;;;-2.67;44.19
54920;BME280;63804;53.120;8.764;2022-12-18T03:26:47;103060.59;;;-2.59;44.09
54920;BME280;63804;53.120;8.764;2022-12-18T03:29:33;103059.38;;;-2.50;43.94
54920;BME280;63804;53.120;8.764;2022-12-18T03:32:09;103064.13;;;-2.80;44.37
54920;BME280;63804;53.120;8.764;2022-12-18T03:34:39;103056.41;;;-2.68;44.19
54920;BME280;63804;53.120;8.764;2022-12-18T03:37:06;103062.44;;;-2.53;43.86
54920;BME280;63804;53.120;8.764;2022-12-18T03:39:38;103060.84;;;-2.82;44.67
54920;BME280;63804;53.120;8.764;2022-12-18T03:42:25;103066.31;;;-2.62;43.91
54920;BME280;63804;53.120;8.764;2022-12-18T03:45:33;103066.75;;;-2.59;43.53
54920;BME280;63804;53.120;8.764;2022-12-18T03:48:06;103068.81;;;-2.89;43.91
54920;BME280;63804;53.120;8.764;2022-12-18T03:50:46;103077.50;;;-3.08;43.68
54920;BME280;63804;53.120;8.764;2022-12-18T03:53:25;103079.97;;;-3.07;44.42
54920;BME280;63804;53.120;8.764;2022-12-18T03:55:55;103077.03;;;-2.90;43.74
54920;BME280;63804;53.120;8.764;2022-12-18T03:58:24;103079.44;;;-2.96;43.75
54920;BME280;63804;53.120;8.764;2022-12-18T04:00:53;103077.06;;;-3.12;43.77
54920;BME280;63804;53.120;8.764;2022-12-18T04:03:21;103060.94;;;-2.97;43.30
54920;BME280;63804;53.120;8.764;2022-12-18T04:05:50;103054.38;;;-3.44;43.81
54920;BME280;63804;53.120;8.764;2022-12-18T04:08:17;103045.38;;;-3.80;44.47
54920;BME280;63804;53.120;8.764;2022-12-18T04:10:43;103049.44;;;-3.84;44.21
54920;BME280;63804;53.120;8.764;2022-12-18T04:13:09;103038.16;;;-3.86;44.42
54920;BME280;63804;53.120;8.764;2022-12-18T04:15:36;103038.78;;;-3.84;44.23
54920;BME280;63804;53.120;8.764;2022-12-18T04:18:03;103054.16;;;-3.86;44.35
54920;BME280;63804;53.120;8.764;2022-12-18T04:20:29;103043.19;;;-3.76;44.27
54920;BME280;63804;53.120;8.764;2022-12-18T04:22:55;103040.97;;;-3.51;43.94
54920;BME280;63804;53.120;8.764;2022-12-18T04:25:21;103040.97;;;-3.51;43.98
54920;BME280;63804;53.120;8.764;2022-12-18T04:27:46;103031.78;;;-3.63;43.97
54920;BME280;63804;53.120;8.764;2022-12-18T04:30:12;103034.16;;;-3.54;43.76
54920;BME280;63804;53.120;8.764;2022-12-18T04:32:38;103042.78;;;-3.73;43.97
54920;BME280;63804;53.120;8.764;2022-12-18T04:35:04;103049.22;;;-3.46;43.53
54920;BME280;63804;53.120;8.764;2022-12-18T04:37:32;103050.53;;;-3.35;43.07
54920;BME280;63804;53.120;8.764;2022-12-18T04:39:57;103053.53;;;-3.45;43.48
54920;BME280;63804;53.120;8.764;2022-12-18T04:42:23;103045.94;;;-3.48;43.38
54920;BME280;63804;53.120;8.764;2022-12-18T04:44:49;103052.16;;;-3.62;43.48
54920;BME280;63804;53.120;8.764;2022-12-18T04:47:15;103057.97;;;-3.74;43.46
54920;BME280;63804;53.120;8.764;2022-12-18T04:49:40;103057.66;;;-3.64;43.71
54920;BME280;63804;53.120;8.764;2022-12-18T04:52:06;103053.53;;;-3.66;43.31
54920;BME280;63804;53.120;8.764;2022-12-18T04:54:34;103055.63;;;-3.98;43.72
54920;BME280;63804;53.120;8.764;2022-12-18T04:57:00;103056.63;;;-4.21;44.25
54920;BME280;63804;53.120;8.764;2022-12-18T04:59:26;103062.41;;;-4.17;43.93
54920;BME280;63804;53.120;8.764;2022-12-18T05:01:52;103061.22;;;-4.15;44.00
54920;BME280;63804;53.120;8.764;2022-12-18T05:04:17;103060.81;;;-4.12;44.15
54920;BME280;63804;53.120;8.764;2022-12-18T05:06:43;103065.69;;;-4.00;43.85
54920;BME280;63804;53.120;8.764;2022-12-18T05:09:09;103074.13;;;-3.97;43.70
54920;BME280;63804;53.120;8.764;2022-12-18T05:11:35;103070.66;;;-4.12;43.88
54920;BME280;63804;53.120;8.764;2022-12-18T05:14:01;103078.41;;;-4.17;44.12
54920;BME280;63804;53.120;8.764;2022-12-18T05:16:27;103076.44;;;-3.94;43.95
54920;BME280;63804;53.120;8.764;2022-12-18T05:18:52;103070.69;;;-3.76;43.56
54920;BME280;63804;53.120;8.764;2022-12-18T05:21:18;103080.03;;;-3.65;43.43
54920;BME280;63804;53.120;8.764;2022-12-18T05:23:44;103082.78;;;-3.58;42.92
54920;BME280;63804;53.120;8.764;2022-12-18T05:26:15;103089.16;;;-3.59;42.88
54920;BME280;63804;53.120;8.764;2022-12-18T05:28:41;103093.63;;;-3.60;42.88
54920;BME280;63804;53.120;8.764;2022-12-18T05:31:06;103102.97;;;-3.71;42.76
54920;BME280;63804;53.120;8.764;2022-12-18T05:33:34;103105.41;;;-3.54;42.74
54920;BME280;63804;53.120;8.764;2022-12-18T05:36:05;103106.09;;;-3.67;42.66
54920;BME280;63804;53.120;8.764;2022-12-18T05:38:34;103112.25;;;-4.18;43.73
54920;BME280;63804;53.120;8.764;2022-12-18T05:41:00;103117.69;;;-4.41;43.98
54920;BME280;63804;53.120;8.764;2022-12-18T05:43:26;103114.28;;;-4.35;43.89
54920;BME280;63804;53.120;8.764;2022-12-18T05:45:53;103108.28;;;-4.52;44.11
54920;BME280;63804;53.120;8.764;2022-12-18T05:48:19;103103.78;;;-4.66;44.39
54920;BME280;63804;53.120;8.764;2022-12-18T05:50:47;103092.38;;;-4.45;44.28
54920;BME280;63804;53.120;8.764;2022-12-18T05:53:15;103089.34;;;-4.27;43.84
54920;BME280;63804;53.120;8.764;2022-12-18T05:55:42;103083.66;;;-4.24;43.64
54920;BME280;63804;53.120;8.764;2022-12-18T05:58:10;103086.41;;;-4.02;43.24
54920;BME280;63804;53.120;8.764;2022-12-18T06:00:37;103095.63;;;-3.83;42.75
54920;BME280;63804;53.120;8.764;2022-12-18T06:03:10;103090.06;;;-4.03;43.01
54920;BME280;63804;53.120;8.764;2022-12-18T06:05:39;103088.78;;;-4.08;43.20
54920;BME280;63804;53.120;8.764;2022-12-18T06:08:06;103087.75;;;-4.07;42.90
54920;BME280;63804;53.120;8.764;2022-12-18T06:10:32;103090.56;;;-4.45;43.50
54920;BME280;63804;53.120;8.764;2022-12-18T06:12:58;103099.53;;;-4.60;43.86
54920;BME280;63804;53.120;8.764;2022-12-18T06:15:23;103102.53;;;-4.78;44.03
54920;BME280;63804;53.120;8.764;2022-12-18T06:17:50;103104.53;;;-4.42;43.55
54920;BME280;63804;53.120;8.764;2022-12-18T06:20:15;103113.00;;;-4.24;43.22
54920;BME280;63804;53.120;8.764;2022-12-18T06:22:41;103102.84;;;-3.99;42.71
54920;BME280;63804;53.120;8.764;2022-12-18T06:25:07;103104.16;;;-3.95;42.75
54920;BME280;63804;53.120;8.764;2022-12-18T06:27:34;103114.47;;;-4.21;42.88
54920;BME280;63804;53.120;8.764;2022-12-18T06:30:00;103106.47;;;-4.36;43.16
54920;BME280;63804;53.120;8.764;2022-12-18T06:32:26;103112.63;;;-4.51;42.99
54920;BME280;63804;53.120;8.764;2022-12-18T06:34:52;103099.88;;;-4.78;43.70
54920;BME280;63804;53.120;8.764;2022-12-18T06:37:18;103096.91;;;-4.98;44.19
54920;BME280;63804;53.120;8.764;2022-12-18T06:39:44;103100.06;;;-4.95;44.43
54920;BME280;63804;53.120;8.764;2022-12-18T06:42:10;103102.44;;;-4.85;43.98
54920;BME280;63804;53.120;8.764;2022-12-18T06:44:35;103094.50;;;-4.93;44.26
54920;BME280;63804;53.120;8.764;2022-12-18T06:47:01;103101.63;;;-4.86;44.19
54920;BME280;63804;53.120;8.764;2022-12-18T06:49:27;103109.44;;;-4.84;43.87
54920;BME280;63804;53.120;8.764;2022-12-18T06:51:53;103115.22;;;-4.80;43.18
54920;BME280;63804;53.120;8.764;2022-12-18T06:54:18;103112.41;;;-5.02;43.79
54920;BME280;63804;53.120;8.764;2022-12-18T06:56:47;103118.91;;;-4.82;43.53
54920;BME280;63804;53.120;8.764;2022-12-18T06:59:13;103123.72;;;-4.62;43.23
54920;BME280;63804;53.120;8.764;2022-12-18T07:01:40;103123.88;;;-4.78;43.47
54920;BME280;63804;53.120;8.764;2022-12-18T07:04:07;103121.13;;;-4.70;43.43
54920;BME280;63804;53.120;8.764;2022-12-18T07:06:33;103123.34;;;-4.59;43.24
54920;BME280;63804;53.120;8.764;2022-12-18T07:08:58;103128.31;;;-4.71;43.15
54920;BME280;63804;53.120;8.764;2022-12-18T07:11:24;103131.09;;;-4.87;43.45
54920;BME280;63804;53.120;8.764;2022-12-18T07:13:50;103131.56;;;-4.84;43.75
54920;BME280;63804;53.120;8.764;2022-12-18T07:16:19;103138.84;;;-4.77;43.66
54920;BME280;63804;53.120;8.764;2022-12-18T07:18:45;103134.72;;;-4.65;43.67
54920;BME280;63804;53.120;8.764;2022-12-18T07:21:14;103138.72;;;-4.46;43.31
54920;BME280;63804;53.120;8.764;2022-12-18T07:23:40;103138.19;;;-4.41;43.51
54920;BME280;63804;53.120;8.764;2022-12-18T07:26:12;103138.28;;;-4.50;43.78
54920;BME280;63804;53.120;8.764;2022-12-18T07:28:39;103138.66;;;-4.23;43.55
54920;BME280;63804;53.120;8.764;2022-12-18T07:31:10;103136.34;;;-3.96;43.14
54920;BME280;63804;53.120;8.764;2022-12-18T07:33:37;103139.13;;;-4.19;43.95
54920;BME280;63804;53.120;8.764;2022-12-18T07:36:05;103142.31;;;-3.94;43.86
54920;BME280;63804;53.120;8.764;2022-12-18T07:38:33;103136.63;;;-3.91;43.94
54920;BME280;63804;53.120;8.764;2022-12-18T07:41:10;103133.69;;;-3.96;43.99
54920;BME280;63804;53.120;8.764;2022-12-18T07:43:37;103128.63;;;-4.06;44.44
54920;BME280;63804;53.120;8.764;2022-12-18T07:46:03;103119.50;;;-3.97;44.29
54920;BME280;63804;53.120;8.764;2022-12-18T07:48:30;103122.41;;;-3.77;44.24
54920;BME280;63804;53.120;8.764;2022-12-18T07:51:03;103121.00;;;-3.58;43.73
54920;BME280;63804;53.120;8.764;2022-12-18T07:53:30;103120.81;;;-3.56;44.06
54920;BME280;63804;53.120;8.764;2022-12-18T07:56:00;103116.13;;;-3.33;43.54
54920;BME280;63804;53.120;8.764;2022-12-18T07:58:26;103120.97;;;-3.43;43.74
54920;BME280;63804;53.120;8.764;2022-12-18T08:00:52;103116.06;;;-3.39;44.02
54920;BME280;63804;53.120;8.764;2022-12-18T08:03:18;103118.16;;;-3.35;43.88
54920;BME280;63804;53.120;8.764;2022-12-18T08:05:44;103120.31;;;-3.23;43.67
54920;BME280;63804;53.120;8.764;2022-12-18T08:08:10;103116.00;;;-3.24;43.75
54920;BME280;63804;53.120;8.764;2022-12-18T08:10:37;103117.38;;;-3.28;44.03
54920;BME280;63804;53.120;8.764;2022-12-18T08:13:03;103109.50;;;-3.15;43.72
54920;BME280;63804;53.120;8.764;2022-12-18T08:15:28;103112.53;;;-3.18;43.77
54920;BME280;63804;53.120;8.764;2022-12-18T08:17:57;103110.91;;;-3.19;43.66
54920;BME280;63804;53.120;8.764;2022-12-18T08:20:23;103119.91;;;-2.99;43.71
54920;BME280;63804;53.120;8.764;2022-12-18T08:22:49;103120.09;;;-3.00;43.47
54920;BME280;63804;53.120;8.764;2022-12-18T08:25:14;103118.91;;;-3.19;43.83
54920;BME280;63804;53.120;8.764;2022-12-18T08:27:40;103123.09;;;-3.10;43.75
54920;BME280;63804;53.120;8.764;2022-12-18T08:30:07;103130.41;;;-2.97;43.65
54920;BME280;63804;53.120;8.764;2022-12-18T08:32:33;103122.03;;;-2.94;43.60
54920;BME280;63804;53.120;8.764;2022-12-18T08:34:59;103127.00;;;-2.91;43.44
54920;BME280;63804;53.120;8.764;2022-12-18T08:37:25;103129.41;;;-2.96;43.66
54920;BME280;63804;53.120;8.764;2022-12-18T08:39:50;103126.66;;;-2.81;43.45
54920;BME280;63804;53.120;8.764;2022-12-18T08:42:16;103132.19;;;-2.83;43.47
54920;BME280;63804;53.120;8.764;2022-12-18T08:45:00;103129.97;;;-2.79;43.33
54920;BME280;63804;53.120;8.764;2022-12-18T08:47:26;103120.78;;;-2.91;43.54
54920;BME280;63804;53.120;8.764;2022-12-18T08:49:52;103117.56;;;-2.87;43.74
54920;BME280;63804;53.120;8.764;2022-12-18T08:52:17;103119.66;;;-2.82;43.50
54920;BME280;63804;53.120;8.764;2022-12-18T08:54:43;103110.25;;;-2.71;43.33
54920;BME280;63804;53.120;8.764;2022-12-18T08:57:09;103102.78;;;-2.83;43.60
54920;BME280;63804;53.120;8.764;2022-12-18T08:59:35;103099.75;;;-2.73;43.39
54920;BME280;63804;53.120;8.764;2022-12-18T09:02:00;103102.84;;;-2.76;43.46
54920;BME280;63804;53.120;8.764;2022-12-18T09:04:26;103101.81;;;-2.75;43.82
54920;BME280;63804;53.120;8.764;2022-12-18T09:06:52;103100.13;;;-2.54;43.48
54920;BME280;63804;53.120;8.764;2022-12-18T09:09:20;103094.81;;;-2.48;43.32
54920;BME280;63804;53.120;8.764;2022-12-18T09:11:46;103103.25;;;-2.44;43.22
54920;BME280;63804;53.120;8.764;2022-12-18T09:14:12;103109.31;;;-2.29;43.04
54920;BME280;63804;53.120;8.764;2022-12-18T09:16:44;103116.31;;;-2.28;43.05
54920;BME280;63804;53.120;8.764;2022-12-18T09:19:17;103109.78;;;-2.18;42.93
54920;BME280;63804;53.120;8.764;2022-12-18T09:21:42;103116.31;;;-2.28;42.98
54920;BME280;63804;53.120;8.764;2022-12-18T09:24:11;103120.78;;;-2.35;43.13
54920;BME280;63804;53.120;8.764;2022-12-18T09:26:37;103130.63;;;-2.42;43.45
54920;BME280;63804;53.120;8.764;2022-12-18T09:29:03;103128.09;;;-2.15;43.08
54920;BME280;63804;53.120;8.764;2022-12-18T09:31:30;103140.72;;;-2.09;42.88
54920;BME280;63804;53.120;8.764;2022-12-18T09:33:55;103141.16;;;-1.99;42.83
54920;BME280;63804;53.120;8.764;2022-12-18T09:36:22;103143.22;;;-2.01;43.06
54920;BME280;63804;53.120;8.764;2022-12-18T09:38:47;103143.91;;;-1.86;42.78
54920;BME280;63804;53.120;8.764;2022-12-18T09:43:55;103136.31;;;-1.75;42.62
54920;BME280;63804;53.120;8.764;2022-12-18T09:46:47;103134.38;;;-1.95;42.90
54920;BME280;63804;53.120;8.764;2022-12-18T09:49:18;103133.56;;;-1.95;43.16
54920;BME280;63804;53.120;8.764;2022-12-18T09:51:51;103146.00;;;-1.81;42.95
54920;BME280;63804;53.120;8.764;2022-12-18T09:54:34;103144.72;;;-1.85;42.94
54920;BME280;63804;53.120;8.764;2022-12-18T09:57:01;103151.16;;;-1.73;42.89
54920;BME280;63804;53.120;8.764;2022-12-18T09:59:33;103150.28;;;-1.87;43.19
54920;BME280;63804;53.120;8.764;2022-12-18T10:02:18;103158.16;;;-1.72;42.84
54920;BME280;63804;53.120;8.764;2022-12-18T10:04:51;103137.53;;;-1.78;42.97
54920;BME280;63804;53.120;8.764;2022-12-18T10:07:32;103133.88;;;-1.70;42.97
54920;BME280;63804;53.120;8.764;2022-12-18T10:10:10;103144.22;;;-1.54;42.68
54920;BME280;63804;53.120;8.764;2022-12-18T10:15:28;103150.16;;;-1.65;42.83
54920;BME280;63804;53.120;8.764;2022-12-18T10:21:10;103136.75;;;-1.65;43.25
54920;BME280;63804;53.120;8.764;2022-12-18T10:26:11;103128.97;;;-1.47;42.80
54920;BME280;63804;53.120;8.764;2022-12-18T10:28:40;103124.88;;;-1.49;42.88
54920;BME280;63804;53.120;8.764;2022-12-18T10:31:07;103112.53;;;-1.30;42.93
54920;BME280;63804;53.120;8.764;2022-12-18T10:33:39;103110.25;;;-1.33;42.81
54920;BME280;63804;53.120;8.764;2022-12-18T10:36:06;103110.44;;;-1.41;42.89
54920;BME280;63804;53.120;8.764;2022-12-18T10:38:33;103108.81;;;-1.36;42.71
54920;BME280;63804;53.120;8.764;2022-12-18T10:41:22;103102.00;;;-1.38;42.80
54920;BME280;63804;53.120;8.764;2022-12-18T10:44:22;103104.06;;;-1.47;42.72
54920;BME280;63804;53.120;8.764;2022-12-18T10:46:51;103102.63;;;-1.36;43.01
54920;BME280;63804;53.120;8.764;2022-12-18T10:49:27;103108.38;;;-1.39;42.90
54920;BME280;63804;53.120;8.764;2022-12-18T10:54:48;103104.28;;;-1.35;42.87
54920;BME280;63804;53.120;8.764;2022-12-18T10:57:36;103098.13;;;-1.22;42.57
54920;BME280;63804;53.120;8.764;2022-12-18T11:00:22;103097.28;;;-1.16;42.40
54920;BME280;63804;53.120;8.764;2022-12-18T11:02:49;103089.44;;;-1.11;42.30
54920;BME280;63804;53.120;8.764;2022-12-18T11:05:32;103072.56;;;-1.05;42.49
54920;BME280;63804;53.120;8.764;2022-12-18T11:07:59;103069.25;;;-1.14;42.62
54920;BME280;63804;53.120;8.764;2022-12-18T11:10:30;103061.84;;;-1.18;42.82
54920;BME280;63804;53.120;8.764;2022-12-18T11:13:21;103071.72;;;-1.25;42.98
54920;BME280;63804;53.120;8.764;2022-12-18T11:15:47;103059.75;;;-1.23;43.12
54920;BME280;63804;53.120;8.764;2022-12-18T11:20:43;103046.56;;;-1.31;43.45
54920;BME280;63804;53.120;8.764;2022-12-18T11:23:15;103042.88;;;-1.17;43.28
54920;BME280;63804;53.120;8.764;2022-12-18T11:25:51;103054.41;;;-1.03;43.06
54920;BME280;63804;53.120;8.764;2022-12-18T11:29:09;103046.16;;;-1.21;43.45
54920;BME280;63804;53.120;8.764;2022-12-18T11:31:26;103041.63;;;-0.94;42.99
54920;BME280;63804;53.120;8.764;2022-12-18T11:34:12;103050.25;;;-0.72;42.82
54920;BME280;63804;53.120;8.764;2022-12-18T11:36:45;103040.94;;;-0.69;42.81
54920;BME280;63804;53.120;8.764;2022-12-18T11:41:50;103019.56;;;-0.31;42.52
54920;BME280;63804;53.120;8.764;2022-12-18T11:48:14;102991.28;;;-0.27;42.66
54920;BME280;63804;53.120;8.764;2022-12-18T11:53:02;102996.06;;;-0.36;42.79
54920;BME280;63804;53.120;8.764;2022-12-18T11:55:47;103000.06;;;-0.13;42.64
54920;BME280;63804;53.120;8.764;2022-12-18T11:58:19;102990.53;;;-0.02;42.55
54920;BME280;63804;53.120;8.764;2022-12-18T12:01:16;102992.69;;;-0.24;42.89
54920;BME280;63804;53.120;8.764;2022-12-18T12:04:06;102986.91;;;-0.21;42.66
54920;BME280;63804;53.120;8.764;2022-12-18T12:09:40;102979.59;;;-0.01;42.50
54920;BME280;63804;53.120;8.764;2022-12-18T12:15:26;102982.66;;;0.03;42.26
54920;BME280;63804;53.120;8.764;2022-12-18T12:20:49;102980.19;;;0.01;42.06
54920;BME280;63804;53.120;8.764;2022-12-18T12:29:32;102971.06;;;0.03;42.30
54920;BME280;63804;53.120;8.764;2022-12-18T12:32:16;102961.44;;;-0.05;42.64
54920;BME280;63804;53.120;8.764;2022-12-18T12:40:28;102936.06;;;-0.16;42.76
54920;BME280;63804;53.120;8.764;2022-12-18T12:45:57;102940.16;;;-0.07;42.76
54920;BME280;63804;53.120;8.764;2022-12-18T12:51:09;102935.25;;;-0.17;42.86
54920;BME280;63804;53.120;8.764;2022-12-18T12:53:37;102925.81;;;-0.26;43.13
54920;BME280;63804;53.120;8.764;2022-12-18T12:56:05;102924.13;;;-0.20;42.93
54920;BME280;63804;53.120;8.764;2022-12-18T13:09:06;102923.97;;;0.07;42.65
54920;BME280;63804;53.120;8.764;2022-12-18T13:11:45;102913.56;;;0.17;42.73
54920;BME280;63804;53.120;8.764;2022-12-18T13:14:36;102922.13;;;0.00;43.02
54920;BME280;63804;53.120;8.764;2022-12-18T13:19:44;102907.09;;;-0.01;42.97
54920;BME280;63804;53.120;8.764;2022-12-18T13:22:34;102901.06;;;-0.28;43.65
54920;BME280;63804;53.120;8.764;2022-12-18T13:25:00;102903.53;;;-0.26;43.71
54920;BME280;63804;53.120;8.764;2022-12-18T13:35:40;102882.72;;;-0.06;43.20
54920;BME280;63804;53.120;8.764;2022-12-18T13:38:37;102883.75;;;-0.32;43.68
54920;BME280;63804;53.120;8.764;2022-12-18T13:43:49;102884.56;;;-0.31;43.71
54920;BME280;63804;53.120;8.764;2022-12-18T13:51:48;102863.84;;;-0.24;43.53
54920;BME280;63804;53.120;8.764;2022-12-18T13:54:37;102853.22;;;-0.38;43.80
54920;BME280;63804;53.120;8.764;2022-12-18T13:57:23;102850.75;;;-0.39;43.78
54920;BME280;63804;53.120;8.764;2022-12-18T13:59:53;102850.28;;;-0.29;43.77
54920;BME280;63804;53.120;8.764;2022-12-18T14:02:25;102858.94;;;-0.27;43.80
54920;BME280;63804;53.120;8.764;2022-12-18T14:04:52;102847.75;;;-0.24;43.74
54920;BME280;63804;53.120;8.764;2022-12-18T14:07:24;102853.97;;;-0.24;43.70
54920;BME280;63804;53.120;8.764;2022-12-18T14:09:55;102845.25;;;-0.19;43.56
54920;BME280;63804;53.120;8.764;2022-12-18T14:12:25;102846.91;;;-0.18;43.64
54920;BME280;63804;53.120;8.764;2022-12-18T14:15:23;102839.44;;;-0.16;43.55
54920;BME280;63804;53.120;8.764;2022-12-18T14:17:52;102844.03;;;-0.23;43.69
54920;BME280;63804;53.120;8.764;2022-12-18T14:20:18;102843.78;;;-0.15;43.31
54920;BME280;63804;53.120;8.764;2022-12-18T14:22:47;102832.88;;;-0.20;43.42
54920;BME280;63804;53.120;8.764;2022-12-18T14:25:22;102827.28;;;-0.19;43.41
54920;BME280;63804;53.120;8.764;2022-12-18T14:30:44;102830.16;;;-0.45;43.69
54920;BME280;63804;53.120;8.764;2022-12-18T14:33:13;102822.56;;;-0.23;43.16
54920;BME280;63804;53.120;8.764;2022-12-18T14:35:42;102825.16;;;-0.10;43.25
54920;BME280;63804;53.120;8.764;2022-12-18T14:38:22;102823.00;;;-0.26;43.43
54920;BME280;63804;53.120;8.764;2022-12-18T14:41:02;102816.34;;;-0.17;43.10
54920;BME280;63804;53.120;8.764;2022-12-18T14:43:31;102809.75;;;-0.21;43.51